createdAt,value
2022-09-17T00:01:08.377Z,12.20
2022-09-17T00:03:35.731Z,12.30
2022-09-17T00:06:08.250Z,12.30
2022-09-17T00:08:36.619Z,12.40
2022-09-17T00:11:20.969Z,12.50
2022-09-17T00:13:48.526Z,12.40
2022-09-17T00:16:29.498Z,12.50
2022-09-17T00:18:58.333Z,12.40
2022-09-17T00:21:25.818Z,12.50
2022-09-17T00:24:00.626Z,12.40
2022-09-17T00:26:28.544Z,12.40
2022-09-17T00:28:57.166Z,12.50
2022-09-17T00:31:25.003Z,12.40
2022-09-17T00:33:52.378Z,12.40
2022-09-17T00:36:20.566Z,12.50
2022-09-17T00:38:55.616Z,12.60
2022-09-17T00:41:25.140Z,12.70
2022-09-17T00:44:01.398Z,12.60
2022-09-17T00:46:43.960Z,12.60
2022-09-17T00:49:17.876Z,12.60
2022-09-17T00:52:00.619Z,12.50
2022-09-17T00:54:28.709Z,12.50
2022-09-17T00:56:57.354Z,12.50
2022-09-17T00:59:25.048Z,12.40
2022-09-17T01:01:52.903Z,12.40
2022-09-17T01:04:22.059Z,12.40
2022-09-17T01:07:16.201Z,12.60
2022-09-17T01:09:52.109Z,12.50
2022-09-17T01:12:41.998Z,12.50
2022-09-17T01:15:15.044Z,12.40
2022-09-17T01:18:06.767Z,12.40
2022-09-17T01:21:04.454Z,12.40
2022-09-17T01:24:09.030Z,12.30
2022-09-17T01:27:03.164Z,12.40
2022-09-17T01:30:04.634Z,12.30
2022-09-17T01:32:46.196Z,12.40
2022-09-17T01:35:13.047Z,12.40
2022-09-17T01:37:51.958Z,12.60
2022-09-17T01:40:37.715Z,12.50
2022-09-17T01:43:16.125Z,12.60
2022-09-17T01:45:52.704Z,12.70
2022-09-17T01:48:23.809Z,12.80
2022-09-17T01:50:53.039Z,12.70
2022-09-17T01:53:27.000Z,12.80
2022-09-17T01:55:58.141Z,12.80
2022-09-17T01:58:51.341Z,12.60
2022-09-17T02:01:22.064Z,12.60
2022-09-17T02:03:56.738Z,12.30
2022-09-17T02:06:29.887Z,12.30
2022-09-17T02:09:24.235Z,12.20
2022-09-17T02:11:58.825Z,12.10
2022-09-17T02:14:33.823Z,12.10
2022-09-17T02:17:24.757Z,12.00
2022-09-17T02:19:53.696Z,12.10
2022-09-17T02:22:44.549Z,12.10
2022-09-17T02:25:28.572Z,12.00
2022-09-17T02:28:36.950Z,11.90
2022-09-17T02:31:04.095Z,11.70
2022-09-17T02:33:33.143Z,11.70
2022-09-17T02:36:00.053Z,11.60
2022-09-17T02:38:29.451Z,11.60
2022-09-17T02:41:05.908Z,11.60
2022-09-17T02:43:47.370Z,11.70
2022-09-17T02:46:47.300Z,11.70
2022-09-17T02:49:29.700Z,11.70
2022-09-17T02:52:35.635Z,11.90
2022-09-17T02:55:10.130Z,11.90
2022-09-17T02:58:09.598Z,11.80
2022-09-17T03:00:36.514Z,11.70
2022-09-17T03:03:26.345Z,11.70
2022-09-17T03:05:54.697Z,11.60
2022-09-17T03:08:40.213Z,11.60
2022-09-17T03:11:09.230Z,11.50
2022-09-17T03:13:37.106Z,11.40
2022-09-17T03:16:06.379Z,11.50
2022-09-17T03:18:33.349Z,11.50
2022-09-17T03:21:00.133Z,11.40
2022-09-17T03:23:28.139Z,11.40
2022-09-17T03:25:55.361Z,11.40
2022-09-17T03:28:22.633Z,11.40
2022-09-17T03:30:49.515Z,11.40
2022-09-17T03:33:16.696Z,11.30
2022-09-17T03:35:46.833Z,11.50
2022-09-17T03:38:13.979Z,11.20
2022-09-17T03:40:40.905Z,11.30
2022-09-17T03:43:08.025Z,11.20
2022-09-17T03:45:35.062Z,11.20
2022-09-17T03:48:02.107Z,11.20
2022-09-17T03:50:28.889Z,11.20
2022-09-17T03:52:55.658Z,11.30
2022-09-17T03:55:22.608Z,11.30
2022-09-17T03:57:49.506Z,11.40
2022-09-17T04:00:17.379Z,11.50
2022-09-17T04:02:44.426Z,11.60
2022-09-17T04:05:11.607Z,11.70
2022-09-17T04:07:41.013Z,11.70
2022-09-17T04:10:09.472Z,11.80
2022-09-17T04:12:37.099Z,11.80
2022-09-17T04:15:04.730Z,12.00
2022-09-17T04:17:31.865Z,12.10
2022-09-17T04:19:58.934Z,12.10
2022-09-17T04:22:26.338Z,12.20
2022-09-17T04:24:53.034Z,12.40
2022-09-17T04:27:19.920Z,12.40
2022-09-17T04:29:46.761Z,12.50
2022-09-17T04:32:13.787Z,12.50
2022-09-17T04:34:40.601Z,12.50
2022-09-17T04:37:07.785Z,12.50
2022-09-17T04:39:34.624Z,12.50
2022-09-17T04:42:01.473Z,12.60
2022-09-17T04:44:28.198Z,12.60
2022-09-17T04:46:55.120Z,12.60
2022-09-17T04:49:22.819Z,12.70
2022-09-17T04:51:49.577Z,12.60
2022-09-17T04:54:16.556Z,12.60
2022-09-17T04:56:43.413Z,12.70
2022-09-17T04:59:10.362Z,12.70
2022-09-17T05:01:37.193Z,12.70
2022-09-17T05:04:04.038Z,12.70
2022-09-17T05:06:30.786Z,12.80
2022-09-17T05:08:57.678Z,12.70
2022-09-17T05:11:24.669Z,12.70
2022-09-17T05:13:51.458Z,12.70
2022-09-17T05:16:18.678Z,12.70
2022-09-17T05:18:45.807Z,12.70
2022-09-17T05:21:12.675Z,12.70
2022-09-17T05:23:43.041Z,12.80
2022-09-17T05:26:09.981Z,12.80
2022-09-17T05:28:36.847Z,12.80
2022-09-17T05:31:04.015Z,12.70
2022-09-17T05:33:30.762Z,12.70
2022-09-17T05:35:57.580Z,12.50
2022-09-17T05:38:27.223Z,12.70
2022-09-17T05:40:54.007Z,12.40
2022-09-17T05:43:20.887Z,12.40
2022-09-17T05:45:48.139Z,12.40
2022-09-17T05:48:15.795Z,12.40
2022-09-17T05:50:42.593Z,12.50
2022-09-17T05:53:12.135Z,12.50
2022-09-17T05:55:39.432Z,12.60
2022-09-17T05:58:11.426Z,12.40
2022-09-17T06:00:40.023Z,12.50
2022-09-17T06:03:06.889Z,12.50
2022-09-17T06:05:33.734Z,12.50
2022-09-17T06:08:00.527Z,12.60
2022-09-17T06:10:27.380Z,12.60
2022-09-17T06:13:00.835Z,12.60
2022-09-17T06:15:28.701Z,12.60
2022-09-17T06:17:55.507Z,12.60
2022-09-17T06:20:22.782Z,12.60
2022-09-17T06:22:49.570Z,12.60
2022-09-17T06:25:16.481Z,12.40
2022-09-17T06:27:43.288Z,12.60
2022-09-17T06:30:10.427Z,12.60
2022-09-17T06:32:37.299Z,12.70
2022-09-17T06:35:04.125Z,12.90
2022-09-17T06:37:32.613Z,13.00
2022-09-17T06:39:59.962Z,13.10
2022-09-17T06:42:28.396Z,13.20
2022-09-17T06:44:58.887Z,13.30
2022-09-17T06:47:26.708Z,13.60
2022-09-17T06:49:54.590Z,13.50
2022-09-17T06:52:21.429Z,13.50
2022-09-17T06:54:48.216Z,13.40
2022-09-17T06:57:14.970Z,13.50
2022-09-17T06:59:42.894Z,13.40
2022-09-17T07:02:09.909Z,13.50
2022-09-17T07:04:36.709Z,13.50
2022-09-17T07:07:05.212Z,13.60
2022-09-17T07:09:32.066Z,13.50
2022-09-17T07:11:58.991Z,13.60
2022-09-17T07:14:26.752Z,13.70
2022-09-17T07:16:53.520Z,13.80
2022-09-17T07:19:20.276Z,13.90
2022-09-17T07:21:49.051Z,13.90
2022-09-17T07:24:15.941Z,13.90
2022-09-17T07:26:43.700Z,14.00
2022-09-17T07:29:10.377Z,14.00
2022-09-17T07:31:37.244Z,14.00
2022-09-17T07:34:04.221Z,14.00
2022-09-17T07:36:32.073Z,14.10
2022-09-17T07:38:58.865Z,14.20
2022-09-17T07:41:25.701Z,14.50
2022-09-17T07:43:56.676Z,14.70
2022-09-17T07:46:23.849Z,14.80
2022-09-17T07:48:51.624Z,14.70
2022-09-17T07:51:22.767Z,14.70
2022-09-17T07:53:54.319Z,14.70
2022-09-17T07:56:22.067Z,14.70
2022-09-17T07:58:48.960Z,14.70
2022-09-17T08:01:17.142Z,14.70
2022-09-17T08:03:48.757Z,14.60
2022-09-17T08:06:17.854Z,15.00
2022-09-17T08:08:44.502Z,15.30
2022-09-17T08:11:13.890Z,15.50
2022-09-17T08:13:41.082Z,15.70
2022-09-17T08:16:10.972Z,15.80
2022-09-17T08:18:37.748Z,15.90
2022-09-17T08:21:06.758Z,15.80
2022-09-17T08:23:38.632Z,15.90
2022-09-17T08:26:10.991Z,16.30
2022-09-17T08:28:37.965Z,16.80
2022-09-17T08:31:08.518Z,17.10
2022-09-17T08:33:42.133Z,17.00
2022-09-17T08:36:12.200Z,16.70
2022-09-17T08:38:40.284Z,16.30
2022-09-17T08:41:21.092Z,15.90
2022-09-17T08:44:15.922Z,15.60
2022-09-17T08:46:53.424Z,15.50
2022-09-17T08:49:32.866Z,15.40
2022-09-17T08:52:18.154Z,15.30
2022-09-17T08:55:13.240Z,15.30
2022-09-17T08:57:54.917Z,15.60
2022-09-17T09:00:23.895Z,15.60
2022-09-17T09:02:50.624Z,15.90
2022-09-17T09:05:22.736Z,16.10
2022-09-17T09:08:05.461Z,16.20
2022-09-17T09:10:46.524Z,16.30
2022-09-17T09:13:17.534Z,16.70
2022-09-17T09:15:51.973Z,16.90
2022-09-17T09:18:23.329Z,17.00
2022-09-17T09:21:03.978Z,16.90
2022-09-17T09:23:41.031Z,16.60
2022-09-17T09:26:17.928Z,16.30
2022-09-17T09:29:21.106Z,16.00
2022-09-17T09:31:58.100Z,16.00
2022-09-17T09:34:28.169Z,15.90
2022-09-17T09:37:19.763Z,15.80
2022-09-17T09:39:49.575Z,15.70
2022-09-17T09:42:27.170Z,15.40
2022-09-17T09:44:54.296Z,15.20
2022-09-17T09:47:28.443Z,15.00
2022-09-17T09:50:21.487Z,14.90
2022-09-17T09:53:25.940Z,14.80
2022-09-17T09:56:14.164Z,14.80
2022-09-17T09:58:41.621Z,15.00
2022-09-17T10:01:15.724Z,15.40
2022-09-17T10:03:45.985Z,16.00
2022-09-17T10:06:17.582Z,16.60
2022-09-17T10:08:50.887Z,17.00
2022-09-17T10:11:26.894Z,17.40
2022-09-17T10:14:13.395Z,17.50
2022-09-17T10:16:40.348Z,17.60
2022-09-17T10:19:08.067Z,18.00
2022-09-17T10:21:36.709Z,17.80
2022-09-17T10:24:09.296Z,17.30
2022-09-17T10:26:42.006Z,16.20
2022-09-17T10:29:16.684Z,15.10
2022-09-17T10:31:48.695Z,14.20
2022-09-17T10:34:20.393Z,13.70
2022-09-17T10:36:48.400Z,13.50
2022-09-17T10:39:44.957Z,13.80
2022-09-17T10:42:11.589Z,14.40
2022-09-17T10:44:50.109Z,14.80
2022-09-17T10:47:36.323Z,15.00
2022-09-17T10:50:08.205Z,15.70
2022-09-17T10:52:40.173Z,16.00
2022-09-17T10:55:15.587Z,16.30
2022-09-17T10:57:42.403Z,16.20
2022-09-17T11:00:15.888Z,16.10
2022-09-17T11:03:17.685Z,16.00
2022-09-17T11:05:59.511Z,16.00
2022-09-17T11:08:50.537Z,16.00
2022-09-17T11:11:48.005Z,15.90
2022-09-17T11:14:33.499Z,16.00
2022-09-17T11:17:24.715Z,16.30
2022-09-17T11:20:24.764Z,16.70
2022-09-17T11:23:08.181Z,16.90
2022-09-17T11:25:42.195Z,17.10
2022-09-17T11:28:49.265Z,17.40
2022-09-17T11:31:31.714Z,17.40
2022-09-17T11:34:26.975Z,17.30
2022-09-17T11:37:01.006Z,17.30
2022-09-17T11:39:46.106Z,17.40
2022-09-17T11:42:19.177Z,17.40
2022-09-17T11:45:22.531Z,17.40
2022-09-17T11:47:51.593Z,17.20
2022-09-17T11:50:21.916Z,17.10
2022-09-17T11:53:01.563Z,17.10
2022-09-17T11:55:58.338Z,17.00
2022-09-17T11:58:38.348Z,16.80
2022-09-17T12:01:20.010Z,16.60
2022-09-17T12:04:03.049Z,16.60
2022-09-17T12:06:46.737Z,16.80
2022-09-17T12:09:22.196Z,16.80
2022-09-17T12:12:04.517Z,16.90
2022-09-17T12:14:49.111Z,17.20
2022-09-17T12:17:23.285Z,17.20
2022-09-17T12:19:57.422Z,17.10
2022-09-17T12:22:27.792Z,17.00
2022-09-17T12:24:55.224Z,17.00
2022-09-17T12:27:41.000Z,17.20
2022-09-17T12:30:12.384Z,17.40
2022-09-17T12:33:03.633Z,17.70
2022-09-17T12:36:02.515Z,18.00
2022-09-17T12:38:30.181Z,18.10
2022-09-17T12:41:27.911Z,18.00
2022-09-17T12:44:22.616Z,17.70
2022-09-17T12:46:59.726Z,17.70
2022-09-17T12:49:44.715Z,17.80
2022-09-17T12:52:30.354Z,18.10
2022-09-17T12:55:00.240Z,18.40
2022-09-17T12:57:41.181Z,18.30
2022-09-17T13:00:14.470Z,18.10
2022-09-17T13:02:44.092Z,18.20
2022-09-17T13:05:36.273Z,18.10
2022-09-17T13:08:28.854Z,17.90
2022-09-17T13:11:22.837Z,17.60
2022-09-17T13:13:59.733Z,17.30
2022-09-17T13:16:45.326Z,16.90
2022-09-17T13:19:38.132Z,16.70
2022-09-17T13:22:20.862Z,16.20
2022-09-17T13:25:08.465Z,15.60
2022-09-17T13:27:38.591Z,14.80
2022-09-17T13:30:11.076Z,14.20
2022-09-17T13:32:39.582Z,14.00
2022-09-17T13:35:18.043Z,14.10
2022-09-17T13:38:05.088Z,14.30
2022-09-17T13:40:36.813Z,14.70
2022-09-17T13:43:19.837Z,15.80
2022-09-17T13:46:03.664Z,17.10
2022-09-17T13:48:33.961Z,18.00
2022-09-17T13:51:34.416Z,19.00
2022-09-17T13:54:07.408Z,20.20
2022-09-17T13:56:48.611Z,20.30
2022-09-17T13:59:28.187Z,19.70
2022-09-17T14:02:13.987Z,18.60
2022-09-17T14:04:41.026Z,17.80
2022-09-17T14:07:29.880Z,17.20
2022-09-17T14:10:04.430Z,17.00
2022-09-17T14:12:53.532Z,16.90
2022-09-17T14:15:41.464Z,17.70
2022-09-17T14:18:28.510Z,18.60
2022-09-17T14:21:14.501Z,19.20
2022-09-17T14:23:54.514Z,20.10
2022-09-17T14:26:59.910Z,20.70
2022-09-17T14:30:04.311Z,20.60
2022-09-17T14:33:02.962Z,19.40
2022-09-17T14:35:29.817Z,18.00
2022-09-17T14:38:07.818Z,17.20
2022-09-17T14:40:34.839Z,16.60
2022-09-17T14:43:03.407Z,16.30
2022-09-17T14:45:38.854Z,16.10
2022-09-17T14:48:21.661Z,16.00
2022-09-17T14:50:48.553Z,15.90
2022-09-17T14:53:19.853Z,16.00
2022-09-17T14:55:50.101Z,16.00
2022-09-17T14:58:33.050Z,16.00
2022-09-17T15:01:00.648Z,15.80
2022-09-17T15:03:27.740Z,15.80
2022-09-17T15:05:55.426Z,17.00
2022-09-17T15:08:25.415Z,18.20
2022-09-17T15:11:01.349Z,18.30
2022-09-17T15:13:35.766Z,17.70
2022-09-17T15:16:14.320Z,17.20
2022-09-17T15:18:50.590Z,17.00
2022-09-17T15:21:34.926Z,16.80
2022-09-17T15:24:40.272Z,16.60
2022-09-17T15:27:14.841Z,16.40
2022-09-17T15:29:45.527Z,16.10
2022-09-17T15:32:14.199Z,16.00
2022-09-17T15:34:44.642Z,16.30
2022-09-17T15:37:24.805Z,17.10
2022-09-17T15:39:54.687Z,18.60
2022-09-17T15:42:28.799Z,18.90
2022-09-17T15:45:17.716Z,18.40
2022-09-17T15:47:55.917Z,17.60
2022-09-17T15:50:49.595Z,17.00
2022-09-17T15:53:26.483Z,16.70
2022-09-17T15:56:03.245Z,16.40
2022-09-17T15:58:46.714Z,16.30
2022-09-17T16:01:16.603Z,16.20
2022-09-17T16:03:43.553Z,16.00
2022-09-17T16:06:22.398Z,15.90
2022-09-17T16:08:58.535Z,15.80
2022-09-17T16:11:27.299Z,15.70
2022-09-17T16:13:56.158Z,15.50
2022-09-17T16:16:25.471Z,15.50
2022-09-17T16:18:52.841Z,15.50
2022-09-17T16:21:20.357Z,15.50
2022-09-17T16:23:47.236Z,15.70
2022-09-17T16:26:24.873Z,15.80
2022-09-17T16:28:56.826Z,15.90
2022-09-17T16:31:26.154Z,15.70
2022-09-17T16:33:54.958Z,15.60
2022-09-17T16:36:22.798Z,15.50
2022-09-17T16:38:49.681Z,15.40
2022-09-17T16:41:16.479Z,15.30
2022-09-17T16:43:43.290Z,15.20
2022-09-17T16:46:11.523Z,15.30
2022-09-17T16:48:38.683Z,15.10
2022-09-17T16:51:10.125Z,15.10
2022-09-17T16:53:37.538Z,15.10
2022-09-17T16:56:12.557Z,15.20
2022-09-17T16:58:40.174Z,15.20
2022-09-17T17:01:12.033Z,15.20
2022-09-17T17:03:39.494Z,14.90
2022-09-17T17:06:06.687Z,14.80
2022-09-17T17:08:35.063Z,14.50
2022-09-17T17:11:04.975Z,14.20
2022-09-17T17:13:31.662Z,14.00
2022-09-17T17:15:58.542Z,13.90
2022-09-17T17:18:25.404Z,13.80
2022-09-17T17:20:52.206Z,13.80
2022-09-17T17:23:18.940Z,13.80
2022-09-17T17:25:45.610Z,13.80
2022-09-17T17:28:14.707Z,13.70
2022-09-17T17:30:41.582Z,13.80
2022-09-17T17:33:08.359Z,13.70
2022-09-17T17:35:39.474Z,13.70
2022-09-17T17:38:06.171Z,13.60
2022-09-17T17:40:33.041Z,13.70
2022-09-17T17:42:59.902Z,13.80
2022-09-17T17:45:26.702Z,13.80
2022-09-17T17:47:54.111Z,13.80
2022-09-17T17:50:20.903Z,13.80
2022-09-17T17:52:48.649Z,13.80
2022-09-17T17:55:16.607Z,13.80
2022-09-17T17:57:43.346Z,13.70
2022-09-17T18:00:11.827Z,13.50
2022-09-17T18:02:42.077Z,13.70
2022-09-17T18:05:09.464Z,13.60
2022-09-17T18:07:36.341Z,13.60
2022-09-17T18:10:03.351Z,13.60
2022-09-17T18:12:30.036Z,13.60
2022-09-17T18:14:56.818Z,13.60
2022-09-17T18:17:23.591Z,13.60
2022-09-17T18:19:51.485Z,13.50
2022-09-17T18:22:18.493Z,13.40
2022-09-17T18:24:46.445Z,13.40
2022-09-17T18:27:13.250Z,13.40
2022-09-17T18:29:48.299Z,13.60
2022-09-17T18:32:15.083Z,13.50
2022-09-17T18:34:42.065Z,13.50
2022-09-17T18:37:08.737Z,13.50
2022-09-17T18:42:22.312Z,13.60
2022-09-17T18:44:49.679Z,13.70
2022-09-17T18:47:17.594Z,13.70
2022-09-17T18:49:44.308Z,13.80
2022-09-17T18:52:13.440Z,13.70
2022-09-17T18:54:40.223Z,13.70
2022-09-17T18:57:07.119Z,13.80
2022-09-17T18:59:34.028Z,13.60
2022-09-17T19:02:00.856Z,13.50
2022-09-17T19:04:29.366Z,13.60
2022-09-17T19:06:56.273Z,13.70
2022-09-17T19:09:23.070Z,13.70
2022-09-17T19:11:49.787Z,13.70
2022-09-17T19:14:16.532Z,13.60
2022-09-17T19:16:43.241Z,13.30
2022-09-17T19:19:10.011Z,13.10
2022-09-17T19:21:37.833Z,12.90
2022-09-17T19:24:04.953Z,12.80
2022-09-17T19:26:31.721Z,12.60
2022-09-17T19:29:00.375Z,12.60
2022-09-17T19:31:28.032Z,12.50
2022-09-17T19:33:57.299Z,12.50
2022-09-17T19:36:24.133Z,12.50
2022-09-17T19:38:50.997Z,12.50
2022-09-17T19:41:20.257Z,12.50
2022-09-17T19:43:47.261Z,12.60
2022-09-17T19:46:16.597Z,12.60
2022-09-17T19:48:52.625Z,12.60
2022-09-17T19:51:20.921Z,12.60
2022-09-17T19:53:52.558Z,12.60
2022-09-17T19:56:21.497Z,12.70
2022-09-17T19:58:48.732Z,12.70
2022-09-17T20:01:15.954Z,12.70
2022-09-17T20:03:44.177Z,12.90
2022-09-17T20:06:13.741Z,12.70
2022-09-17T20:08:48.547Z,12.70
2022-09-17T20:11:17.057Z,12.70
2022-09-17T20:13:44.197Z,12.70
2022-09-17T20:16:18.465Z,12.70
2022-09-17T20:18:45.420Z,12.70
2022-09-17T20:21:18.541Z,12.70
2022-09-17T20:23:45.720Z,12.70
2022-09-17T20:26:14.844Z,12.70
2022-09-17T20:28:42.000Z,12.70
2022-09-17T20:31:18.644Z,12.90
2022-09-17T20:33:46.553Z,12.80
2022-09-17T20:36:15.588Z,12.80
2022-09-17T20:39:22.401Z,12.80
2022-09-17T20:41:31.547Z,12.80
2022-09-17T20:43:58.843Z,12.70
2022-09-17T20:46:29.026Z,12.70
2022-09-17T20:48:57.451Z,12.70
2022-09-17T20:51:26.756Z,12.70
2022-09-17T20:53:53.715Z,12.70
2022-09-17T20:56:26.760Z,12.80
2022-09-17T20:59:04.042Z,12.80
2022-09-17T21:01:36.149Z,12.90
2022-09-17T21:04:05.696Z,12.90
2022-09-17T21:06:37.876Z,12.90
2022-09-17T21:09:06.225Z,12.90
2022-09-17T21:11:34.103Z,13.00
2022-09-17T21:14:01.259Z,12.90
2022-09-17T21:16:32.227Z,12.90
2022-09-17T21:19:03.387Z,12.90
2022-09-17T21:21:34.261Z,12.90
2022-09-17T21:24:02.559Z,12.90
2022-09-17T21:26:29.808Z,12.90
2022-09-17T21:28:57.712Z,12.90
2022-09-17T21:31:32.108Z,12.90
2022-09-17T21:34:05.355Z,12.90
2022-09-17T21:36:34.524Z,12.90
2022-09-17T21:39:05.986Z,12.90
2022-09-17T21:41:33.235Z,13.00
2022-09-17T21:44:00.410Z,12.90
2022-09-17T21:46:35.256Z,13.10
2022-09-17T21:49:03.075Z,13.00
2022-09-17T21:51:38.231Z,13.00
2022-09-17T21:54:07.729Z,13.10
2022-09-17T21:56:35.167Z,13.10
2022-09-17T21:59:13.605Z,13.10
2022-09-17T22:01:45.876Z,13.20
2022-09-17T22:04:16.925Z,13.30
2022-09-17T22:06:45.029Z,13.10
2022-09-17T22:09:27.475Z,13.10
2022-09-17T22:11:56.324Z,13.30
2022-09-17T22:14:24.695Z,13.10
2022-09-17T22:16:58.627Z,13.20
2022-09-17T22:19:26.084Z,13.10
2022-09-17T22:21:54.932Z,13.10
2022-09-17T22:24:22.602Z,13.10
2022-09-17T22:26:56.615Z,13.10
2022-09-17T22:29:25.920Z,13.10
2022-09-17T22:31:53.096Z,13.10
2022-09-17T22:34:24.326Z,13.10
2022-09-17T22:36:51.261Z,13.20
2022-09-17T22:39:20.790Z,13.30
2022-09-17T22:41:47.962Z,13.10
2022-09-17T22:44:17.685Z,13.10
2022-09-17T22:46:46.857Z,13.10
2022-09-17T22:49:13.861Z,13.10
2022-09-17T22:51:41.867Z,13.10
2022-09-17T22:54:12.054Z,13.10
2022-09-17T22:56:39.762Z,13.10
2022-09-17T22:59:06.705Z,13.20
2022-09-17T23:01:36.214Z,13.20
2022-09-17T23:04:04.908Z,13.30
2022-09-17T23:06:34.743Z,13.30
2022-09-17T23:09:02.091Z,13.30
2022-09-17T23:11:31.848Z,13.20
2022-09-17T23:14:02.187Z,13.20
2022-09-17T23:16:37.590Z,13.30
2022-09-17T23:19:05.179Z,13.20
2022-09-17T23:21:32.558Z,13.20
2022-09-17T23:23:59.454Z,13.20
2022-09-17T23:26:27.444Z,13.20
2022-09-17T23:28:54.592Z,13.30
2022-09-17T23:31:27.396Z,13.10
2022-09-17T23:33:56.076Z,13.10
2022-09-17T23:36:25.331Z,13.00
2022-09-17T23:38:53.718Z,13.00
2022-09-17T23:41:22.139Z,13.00
2022-09-17T23:43:51.132Z,12.90
2022-09-17T23:46:19.033Z,12.90
2022-09-17T23:48:48.818Z,12.90
2022-09-17T23:51:16.471Z,12.90
2022-09-17T23:53:43.567Z,12.80
2022-09-17T23:56:13.581Z,13.00
2022-09-17T23:58:40.898Z,13.00
